createdAt,value
2023-03-28T00:02:51.104Z,5.93
2023-03-28T00:06:53.541Z,5.28
2023-03-28T00:11:05.941Z,4.80
2023-03-28T00:15:08.318Z,5.95
2023-03-28T00:19:12.928Z,5.63
2023-03-28T00:23:14.911Z,5.18
2023-03-28T00:27:17.794Z,5.60
2023-03-28T00:31:20.338Z,4.40
2023-03-28T00:35:22.324Z,6.07
2023-03-28T00:39:26.460Z,8.73
2023-03-28T00:43:45.420Z,7.07
2023-03-28T00:47:54.785Z,7.07
2023-03-28T00:51:59.101Z,7.10
2023-03-28T00:56:07.532Z,6.45
2023-03-28T01:00:12.328Z,6.20
2023-03-28T01:04:20.271Z,6.72
2023-03-28T01:08:26.318Z,6.10
2023-03-28T01:12:29.441Z,5.20
2023-03-28T01:16:31.810Z,5.90
2023-03-28T01:21:22.963Z,5.38
2023-03-28T01:25:54.353Z,5.38
2023-03-28T01:30:11.626Z,6.07
2023-03-28T01:34:58.001Z,5.82
2023-03-28T01:39:17.944Z,6.78
2023-03-28T01:43:34.511Z,6.43
2023-03-28T01:47:42.286Z,7.20
2023-03-28T01:51:53.024Z,6.72
2023-03-28T01:56:23.124Z,8.88
2023-03-28T02:00:37.354Z,8.43
2023-03-28T02:04:45.290Z,9.38
2023-03-28T02:08:49.701Z,10.00
2023-03-28T02:13:18.071Z,12.23
2023-03-28T02:17:27.373Z,8.93
2023-03-28T02:22:15.367Z,7.97
2023-03-28T02:26:56.962Z,8.50
2023-03-28T02:31:17.234Z,9.07
2023-03-28T02:35:27.571Z,8.93
2023-03-28T02:39:46.582Z,9.25
2023-03-28T02:43:59.078Z,7.55
2023-03-28T02:48:17.868Z,8.35
2023-03-28T02:52:35.300Z,8.85
2023-03-28T02:56:51.257Z,8.57
2023-03-28T03:01:25.442Z,9.20
2023-03-28T03:05:27.471Z,10.80
2023-03-28T03:09:29.632Z,11.98
2023-03-28T03:13:31.604Z,9.75
2023-03-28T03:17:36.982Z,10.50
2023-03-28T03:21:40.226Z,11.80
2023-03-28T03:25:43.151Z,11.43
2023-03-28T03:29:53.337Z,12.05
2023-03-28T03:34:01.856Z,12.13
2023-03-28T03:38:08.732Z,13.27
2023-03-28T03:42:11.115Z,13.60
2023-03-28T03:46:13.093Z,15.60
2023-03-28T03:50:15.222Z,15.73
2023-03-28T03:54:17.756Z,16.83
2023-03-28T03:58:20.606Z,17.98
2023-03-28T04:02:24.485Z,17.08
2023-03-28T04:06:34.882Z,16.77
2023-03-28T04:10:42.281Z,17.65
2023-03-28T04:14:44.250Z,20.20
2023-03-28T04:19:16.396Z,19.13
2023-03-28T04:23:18.506Z,18.00
2023-03-28T04:27:21.397Z,21.17
2023-03-28T04:31:29.713Z,19.10
2023-03-28T04:36:00.425Z,17.08
2023-03-28T04:40:10.815Z,17.83
2023-03-28T04:44:23.894Z,19.70
2023-03-28T04:48:33.673Z,18.20
2023-03-28T04:52:36.115Z,17.83
2023-03-28T04:56:38.649Z,16.60
2023-03-28T05:00:40.696Z,17.65
2023-03-28T05:05:09.874Z,15.20
2023-03-28T05:09:12.928Z,15.30
2023-03-28T05:13:16.158Z,14.27
2023-03-28T05:17:26.278Z,14.50
2023-03-28T05:21:42.835Z,15.25
2023-03-28T05:25:50.789Z,14.02
2023-03-28T05:33:55.527Z,13.52
2023-03-28T05:38:10.001Z,16.83
2023-03-28T05:42:12.000Z,14.38
2023-03-28T05:46:15.518Z,14.13
2023-03-28T05:50:17.817Z,13.82
2023-03-28T05:54:19.830Z,20.52
2023-03-28T05:58:21.879Z,14.63
2023-03-28T06:02:24.530Z,13.85
2023-03-28T06:10:40.609Z,13.40
2023-03-28T06:14:53.144Z,13.68
2023-03-28T06:19:14.254Z,12.52
2023-03-28T06:23:24.179Z,13.75
2023-03-28T06:27:26.228Z,14.10
2023-03-28T06:31:28.661Z,16.95
2023-03-28T06:35:33.116Z,16.10
2023-03-28T06:39:35.100Z,16.80
2023-03-28T06:43:37.100Z,20.33
2023-03-28T06:47:43.231Z,19.52
2023-03-28T06:51:45.362Z,22.25
2023-03-28T06:55:49.880Z,18.33
2023-03-28T06:59:52.599Z,18.27
2023-03-28T07:04:02.567Z,17.20
2023-03-28T07:08:06.817Z,16.63
2023-03-28T07:12:08.776Z,17.00
2023-03-28T07:16:13.309Z,17.92
2023-03-28T07:20:15.595Z,19.00
2023-03-28T07:24:18.785Z,19.05
2023-03-28T07:28:30.229Z,18.15
2023-03-28T07:32:39.198Z,18.10
2023-03-28T07:36:53.422Z,19.38
2023-03-28T07:41:14.890Z,18.40
2023-03-28T07:45:17.029Z,16.63
2023-03-28T07:49:21.129Z,15.90
2023-03-28T07:53:23.571Z,17.33
2023-03-28T07:57:25.940Z,18.30
2023-03-28T08:01:33.525Z,18.77
2023-03-28T08:05:39.420Z,19.30
2023-03-28T08:09:41.942Z,19.13
2023-03-28T08:13:51.741Z,19.73
2023-03-28T08:17:58.029Z,17.88
2023-03-28T08:22:02.789Z,18.83
2023-03-28T08:26:11.131Z,17.65
2023-03-28T08:30:15.812Z,17.38
2023-03-28T08:34:29.789Z,17.17
2023-03-28T08:38:34.660Z,15.70
2023-03-28T08:42:49.068Z,15.52
2023-03-28T08:46:58.108Z,14.57
2023-03-28T08:51:06.650Z,12.38
2023-03-28T08:55:35.491Z,12.50
2023-03-28T08:59:48.831Z,11.90
2023-03-28T09:03:51.241Z,9.43
2023-03-28T09:08:31.865Z,7.75
2023-03-28T09:13:17.750Z,9.45
2023-03-28T09:17:31.964Z,7.68
2023-03-28T09:21:50.305Z,6.97
2023-03-28T09:26:05.961Z,5.53
2023-03-28T09:30:19.015Z,4.35
2023-03-28T09:34:28.920Z,4.88
2023-03-28T09:38:39.732Z,4.95
2023-03-28T09:43:01.166Z,6.00
2023-03-28T09:47:12.633Z,8.75
2023-03-28T09:51:21.054Z,13.32
2023-03-28T09:55:26.953Z,15.20
2023-03-28T09:59:31.900Z,17.52
2023-03-28T10:03:52.083Z,15.38
2023-03-28T10:07:58.359Z,15.50
2023-03-28T10:12:10.501Z,17.48
2023-03-28T10:16:19.216Z,16.25
2023-03-28T10:20:41.551Z,16.95
2023-03-28T10:24:47.124Z,18.35
2023-03-28T10:28:54.627Z,18.73
2023-03-28T10:33:17.293Z,18.88
2023-03-28T10:37:41.916Z,16.90
2023-03-28T10:41:55.356Z,15.18
2023-03-28T10:46:18.920Z,12.05
2023-03-28T10:50:46.231Z,10.73
2023-03-28T10:54:53.883Z,9.10
2023-03-28T10:59:30.970Z,7.88
2023-03-28T11:03:55.106Z,6.53
2023-03-28T11:08:34.601Z,6.63
2023-03-28T11:12:59.104Z,4.75
2023-03-28T11:17:16.395Z,5.15
2023-03-28T11:21:46.776Z,4.15
2023-03-28T11:26:04.240Z,3.75
2023-03-28T11:30:34.340Z,4.20
2023-03-28T11:39:34.294Z,7.68
2023-03-28T11:43:56.059Z,5.53
2023-03-28T11:48:08.333Z,3.97
2023-03-28T11:52:28.326Z,3.83
2023-03-28T11:56:48.904Z,4.93
2023-03-28T12:01:14.965Z,3.80
2023-03-28T12:05:26.680Z,2.97
2023-03-28T12:09:44.338Z,3.58
2023-03-28T12:14:01.407Z,2.80
2023-03-28T12:18:30.280Z,3.55
2023-03-28T12:22:42.895Z,4.13
2023-03-28T12:27:23.580Z,4.00
2023-03-28T12:31:31.280Z,3.50
2023-03-28T12:35:51.343Z,4.00
2023-03-28T12:40:15.531Z,4.20
2023-03-28T12:44:24.467Z,3.67
2023-03-28T12:48:41.355Z,2.72
2023-03-28T12:52:46.716Z,3.28
2023-03-28T12:57:21.013Z,2.72
2023-03-28T13:01:32.417Z,2.25
2023-03-28T13:06:12.740Z,2.28
2023-03-28T13:10:42.720Z,2.47
2023-03-28T13:14:59.004Z,3.20
2023-03-28T13:19:10.403Z,2.67
2023-03-28T13:23:15.264Z,2.45
2023-03-28T13:27:33.268Z,3.13
2023-03-28T13:31:42.394Z,2.17
2023-03-28T13:36:10.647Z,2.30
2023-03-28T13:40:43.005Z,2.28
2023-03-28T13:44:50.373Z,2.20
2023-03-28T13:49:01.195Z,2.22
2023-03-28T13:53:03.212Z,1.80
2023-03-28T13:57:08.469Z,2.28
2023-03-28T14:01:24.408Z,2.97
2023-03-28T14:05:29.130Z,2.20
2023-03-28T14:09:34.175Z,7.00
2023-03-28T14:13:37.769Z,4.47
2023-03-28T14:17:39.875Z,3.45
2023-03-28T14:21:41.927Z,2.33
2023-03-28T14:25:43.899Z,2.20
2023-03-28T14:29:56.129Z,2.03
2023-03-28T14:33:59.858Z,2.05
2023-03-28T14:38:07.948Z,3.35
2023-03-28T14:42:15.786Z,2.88
2023-03-28T14:46:23.597Z,2.78
2023-03-28T14:50:30.870Z,3.13
2023-03-28T14:54:37.692Z,2.60
2023-03-28T14:58:43.741Z,2.83
2023-03-28T15:02:46.910Z,3.25
2023-03-28T15:06:55.596Z,3.10
2023-03-28T15:11:03.435Z,2.78
2023-03-28T15:15:06.565Z,2.50
2023-03-28T15:19:19.167Z,2.35
2023-03-28T15:23:29.988Z,2.45
2023-03-28T15:27:34.997Z,2.85
2023-03-28T15:31:40.757Z,3.95
2023-03-28T15:35:45.717Z,3.38
2023-03-28T15:39:53.052Z,2.50
2023-03-28T15:43:55.002Z,4.60
2023-03-28T15:47:57.230Z,2.15
2023-03-28T15:52:05.547Z,2.30
2023-03-28T15:56:17.069Z,1.85
2023-03-28T16:00:37.588Z,2.30
2023-03-28T16:04:39.606Z,2.20
2023-03-28T16:09:08.854Z,2.00
2023-03-28T16:13:14.475Z,2.45
2023-03-28T16:17:42.113Z,2.38
2023-03-28T16:21:59.033Z,3.80
2023-03-28T16:26:03.733Z,3.42
2023-03-28T16:30:10.246Z,2.95
2023-03-28T16:34:12.331Z,6.85
2023-03-28T16:38:13.945Z,7.25
2023-03-28T16:42:15.874Z,8.30
2023-03-28T16:46:18.142Z,7.75
2023-03-28T16:50:20.556Z,4.82
2023-03-28T16:54:23.849Z,5.20
2023-03-28T16:58:29.104Z,4.78
2023-03-28T17:02:32.057Z,4.68
2023-03-28T17:06:34.470Z,5.72
2023-03-28T17:10:39.900Z,6.13
2023-03-28T17:14:42.345Z,6.20
2023-03-28T17:18:44.707Z,5.70
2023-03-28T17:22:46.810Z,5.25
2023-03-28T17:26:48.927Z,6.50
2023-03-28T17:30:51.289Z,5.07
2023-03-28T17:34:53.451Z,4.30
2023-03-28T17:38:57.566Z,5.28
2023-03-28T17:42:59.206Z,5.00
2023-03-28T17:47:01.323Z,5.60
2023-03-28T17:51:03.946Z,4.78
2023-03-28T17:55:06.330Z,4.80
2023-03-28T17:59:08.288Z,8.55
2023-03-28T18:03:10.320Z,4.82
2023-03-28T18:07:40.348Z,4.97
2023-03-28T18:11:44.181Z,5.38
2023-03-28T18:15:46.580Z,5.13
2023-03-28T18:19:48.827Z,5.20
2023-03-28T18:23:51.366Z,4.43
2023-03-28T18:27:53.604Z,3.63
2023-03-28T18:31:56.046Z,4.13
2023-03-28T18:35:58.333Z,3.95
2023-03-28T18:40:00.586Z,4.05
2023-03-28T18:44:03.607Z,4.07
2023-03-28T18:48:06.244Z,4.78
2023-03-28T18:52:10.552Z,5.07
2023-03-28T18:56:13.690Z,5.40
2023-03-28T19:00:18.311Z,5.40
2023-03-28T19:04:23.179Z,5.47
2023-03-28T19:08:28.735Z,4.50
2023-03-28T19:12:30.746Z,6.55
2023-03-28T19:16:32.960Z,5.13
2023-03-28T19:20:35.028Z,4.75
2023-03-28T19:24:37.561Z,4.93
2023-03-28T19:28:40.668Z,5.80
2023-03-28T19:32:42.777Z,5.45
2023-03-28T19:36:46.042Z,8.52
2023-03-28T19:40:48.418Z,5.68
2023-03-28T19:44:50.351Z,6.18
2023-03-28T19:48:52.467Z,6.20
2023-03-28T19:52:54.420Z,6.50
2023-03-28T19:56:56.441Z,5.63
2023-03-28T20:00:58.705Z,8.57
2023-03-28T20:05:00.981Z,5.45
2023-03-28T20:09:03.548Z,5.50
2023-03-28T20:13:05.592Z,5.60
2023-03-28T20:17:07.638Z,6.32
2023-03-28T20:21:11.983Z,5.30
2023-03-28T20:25:14.656Z,5.30
2023-03-28T20:29:16.862Z,6.18
2023-03-28T20:33:20.521Z,8.32
2023-03-28T20:37:23.772Z,8.73
2023-03-28T20:41:27.353Z,9.15
2023-03-28T20:45:30.493Z,7.55
2023-03-28T20:49:32.572Z,8.32
2023-03-28T20:53:34.833Z,6.55
2023-03-28T20:57:41.224Z,7.28
2023-03-28T21:01:47.762Z,5.70
2023-03-28T21:05:52.648Z,4.57
2023-03-28T21:09:55.620Z,4.28
2023-03-28T21:13:59.802Z,4.68
2023-03-28T21:18:02.471Z,4.97
2023-03-28T21:22:04.428Z,6.05
2023-03-28T21:26:08.061Z,4.85
2023-03-28T21:30:11.738Z,5.07
2023-03-28T21:34:13.714Z,3.95
2023-03-28T21:38:15.956Z,3.70
2023-03-28T21:42:17.942Z,3.78
2023-03-28T21:46:20.885Z,4.03
2023-03-28T21:50:23.493Z,3.75
2023-03-28T21:54:25.817Z,3.85
2023-03-28T21:58:29.796Z,3.80
2023-03-28T22:02:31.775Z,4.00
2023-03-28T22:06:33.804Z,3.65
2023-03-28T22:10:37.588Z,3.92
2023-03-28T22:14:39.505Z,3.35
2023-03-28T22:18:49.964Z,3.65
2023-03-28T22:22:52.687Z,3.50
2023-03-28T22:26:55.521Z,3.80
2023-03-28T22:30:57.540Z,3.92
2023-03-28T22:35:00.004Z,3.88
2023-03-28T22:39:02.035Z,4.00
2023-03-28T22:43:04.676Z,3.60
2023-03-28T22:47:06.670Z,3.75
2023-03-28T22:51:11.913Z,3.95
2023-03-28T22:55:14.091Z,2.92
2023-03-28T22:59:16.163Z,3.72
2023-03-28T23:03:18.782Z,3.35
2023-03-28T23:07:20.871Z,4.15
2023-03-28T23:11:22.910Z,5.05
2023-03-28T23:15:25.561Z,5.30
2023-03-28T23:19:31.115Z,3.78
2023-03-28T23:23:33.227Z,4.65
2023-03-28T23:27:35.596Z,4.40
2023-03-28T23:31:37.589Z,4.53
2023-03-28T23:35:42.291Z,5.00
2023-03-28T23:39:44.686Z,4.72
2023-03-28T23:43:46.671Z,4.22
2023-03-28T23:47:48.756Z,3.80
2023-03-28T23:51:50.833Z,6.15
2023-03-28T23:55:53.230Z,4.97
2023-03-28T23:59:58.275Z,3.92
